createdAt,value
2023-05-20T00:00:14.145Z,18.70
2023-05-20T00:05:51.783Z,19.00
2023-05-20T00:11:13.456Z,18.50
2023-05-20T00:16:35.264Z,18.50
2023-05-20T00:21:58.188Z,17.60
2023-05-20T00:27:20.064Z,17.10
2023-05-20T00:32:41.574Z,18.80
2023-05-20T00:38:03.677Z,17.50
2023-05-20T00:43:26.710Z,16.50
2023-05-20T00:48:48.823Z,16.90
2023-05-20T00:54:11.065Z,16.90
2023-05-20T00:59:36.980Z,16.30
2023-05-20T01:04:59.329Z,17.10
2023-05-20T01:10:23.599Z,17.10
2023-05-20T01:15:48.472Z,16.40
2023-05-20T01:21:12.592Z,17.80
2023-05-20T01:26:38.519Z,17.70
2023-05-20T01:32:01.580Z,18.30
2023-05-20T01:37:25.329Z,18.70
2023-05-20T01:42:53.237Z,18.40
2023-05-20T01:53:37.207Z,18.20
2023-05-20T01:58:58.702Z,17.90
2023-05-20T02:04:21.615Z,17.90
2023-05-20T02:09:43.624Z,18.00
2023-05-20T02:15:06.159Z,17.70
2023-05-20T02:20:28.204Z,19.30
2023-05-20T02:25:50.239Z,18.60
2023-05-20T02:31:13.237Z,17.60
2023-05-20T02:36:34.729Z,19.30
2023-05-20T02:41:57.061Z,18.70
2023-05-20T02:47:19.121Z,19.80
2023-05-20T02:52:42.709Z,19.70
2023-05-20T02:58:04.620Z,19.30
2023-05-20T03:03:28.154Z,20.70
2023-05-20T03:08:50.078Z,20.80
2023-05-20T03:14:11.873Z,18.30
2023-05-20T03:19:33.743Z,16.10
2023-05-20T03:24:58.206Z,15.10
2023-05-20T03:30:21.248Z,13.50
2023-05-20T03:35:43.307Z,10.80
2023-05-20T03:41:05.406Z,11.40
2023-05-20T03:46:28.166Z,12.30
2023-05-20T03:51:50.222Z,14.90
2023-05-20T03:57:12.037Z,14.40
2023-05-20T04:02:34.232Z,13.80
2023-05-20T04:08:00.261Z,16.30
2023-05-20T04:13:22.586Z,12.30
2023-05-20T04:18:46.209Z,12.30
2023-05-20T04:24:09.925Z,10.90
2023-05-20T04:29:34.447Z,10.90
2023-05-20T04:34:57.509Z,9.00
2023-05-20T04:40:21.121Z,8.30
2023-05-20T04:45:42.959Z,10.40
2023-05-20T04:51:07.463Z,9.70
2023-05-20T04:56:29.034Z,9.90
2023-05-20T05:01:51.442Z,10.40
2023-05-20T05:07:13.466Z,10.30
2023-05-20T05:12:35.146Z,10.30
2023-05-20T05:17:57.812Z,9.60
2023-05-20T05:23:22.912Z,9.20
2023-05-20T05:28:44.521Z,10.60
2023-05-20T05:34:06.512Z,10.30
2023-05-20T05:39:28.172Z,11.10
2023-05-20T05:44:50.422Z,8.70
2023-05-20T05:50:12.669Z,7.80
2023-05-20T05:55:34.904Z,8.80
2023-05-20T06:00:57.744Z,9.20
2023-05-20T06:06:19.578Z,8.30
2023-05-20T06:11:42.440Z,9.20
2023-05-20T06:17:05.963Z,8.00
2023-05-20T06:22:27.896Z,8.50
2023-05-20T06:27:50.123Z,9.50
2023-05-20T06:33:14.351Z,10.60
2023-05-20T06:38:35.978Z,11.00
2023-05-20T06:43:58.223Z,11.40
2023-05-20T06:49:49.665Z,10.90
2023-05-20T06:55:12.324Z,11.20
2023-05-20T07:00:35.410Z,12.00
2023-05-20T07:05:57.572Z,10.90
2023-05-20T07:11:19.438Z,11.60
2023-05-20T07:16:41.660Z,12.80
2023-05-20T07:22:03.919Z,11.70
2023-05-20T07:27:49.395Z,10.60
2023-05-20T07:33:12.017Z,10.90
2023-05-20T07:38:34.087Z,11.50
2023-05-20T07:43:59.537Z,15.80
2023-05-20T07:49:22.196Z,12.20
2023-05-20T07:54:44.194Z,11.70
2023-05-20T08:00:07.596Z,12.40
2023-05-20T08:05:41.124Z,15.70
2023-05-20T08:11:04.283Z,12.70
2023-05-20T08:16:26.723Z,15.40
2023-05-20T08:21:49.888Z,11.70
2023-05-20T08:27:12.137Z,13.10
2023-05-20T08:32:36.669Z,12.10
2023-05-20T08:37:59.014Z,11.50
2023-05-20T08:43:21.308Z,12.50
2023-05-20T08:48:44.617Z,12.40
2023-05-20T08:54:10.265Z,11.80
2023-05-20T08:59:32.378Z,12.50
2023-05-20T09:04:54.381Z,12.40
2023-05-20T09:10:16.687Z,11.90
2023-05-20T09:15:39.270Z,12.60
2023-05-20T09:21:06.703Z,12.80
2023-05-20T09:26:30.256Z,12.40
2023-05-20T09:31:53.391Z,11.70
2023-05-20T12:27:06.684Z,20.90
2023-05-20T12:32:28.856Z,23.10
2023-05-20T12:37:50.884Z,21.40
2023-05-20T12:43:12.662Z,22.70
2023-05-20T12:48:34.585Z,19.70
2023-05-20T12:53:56.519Z,21.60
2023-05-20T12:59:18.351Z,20.20
2023-05-20T13:04:40.577Z,17.60
2023-05-20T13:10:03.118Z,17.00
2023-05-20T13:15:27.405Z,17.10
2023-05-20T13:20:50.232Z,15.50
2023-05-20T13:26:12.078Z,25.30
2023-05-20T13:31:35.373Z,13.70
2023-05-20T13:36:57.165Z,16.70
2023-05-20T13:42:18.646Z,18.70
2023-05-20T13:47:40.634Z,15.30
2023-05-20T13:53:03.147Z,14.40
2023-05-20T13:58:25.260Z,13.40
2023-05-20T14:03:49.728Z,13.40
2023-05-20T14:09:13.595Z,15.50
2023-05-20T14:14:37.403Z,13.70
2023-05-20T14:20:00.796Z,13.60
2023-05-20T14:25:23.286Z,15.10
2023-05-20T14:30:45.537Z,12.90
2023-05-20T14:36:08.825Z,12.60
2023-05-20T14:41:31.106Z,13.50
2023-05-20T14:46:52.861Z,12.40
2023-05-20T14:52:14.818Z,14.00
2023-05-20T14:57:38.786Z,13.60
2023-05-20T15:03:00.808Z,13.10
2023-05-20T15:08:22.840Z,11.40
2023-05-20T15:13:48.970Z,10.30
2023-05-20T15:19:13.086Z,12.00
2023-05-20T15:24:34.966Z,11.40
2023-05-20T15:29:59.928Z,11.10
2023-05-20T15:35:22.964Z,11.20
2023-05-20T15:40:45.331Z,11.50
2023-05-20T15:46:07.448Z,11.10
2023-05-20T15:51:30.998Z,11.40
2023-05-20T15:56:52.983Z,11.40
2023-05-20T16:02:14.851Z,12.50
2023-05-20T16:07:37.032Z,9.70
2023-05-20T16:12:59.726Z,9.80
2023-05-20T16:18:23.338Z,10.00
2023-05-20T16:23:45.162Z,9.80
2023-05-20T16:29:07.241Z,10.50
2023-05-20T16:34:29.097Z,9.90
2023-05-20T16:39:50.892Z,10.40
2023-05-20T16:45:12.793Z,10.10
2023-05-20T16:50:37.037Z,11.00
2023-05-20T16:55:59.075Z,12.00
2023-05-20T17:01:23.396Z,12.40
2023-05-20T17:06:48.536Z,12.30
2023-05-20T17:12:11.067Z,12.50
2023-05-20T17:17:33.325Z,12.20
2023-05-20T17:22:57.605Z,12.30
2023-05-20T17:28:19.500Z,12.40
2023-05-20T17:33:41.698Z,12.40
2023-05-20T17:39:10.704Z,13.30
2023-05-20T17:44:32.469Z,13.50
2023-05-20T17:49:55.326Z,14.20
2023-05-20T17:55:18.484Z,13.30
2023-05-20T18:00:42.473Z,13.50
2023-05-20T18:06:06.142Z,14.10
2023-05-20T18:11:29.434Z,15.00
2023-05-20T18:16:51.524Z,14.70
2023-05-20T18:22:13.486Z,14.80
2023-05-20T18:27:35.918Z,14.90
2023-05-20T18:33:04.901Z,15.10
2023-05-20T18:38:26.664Z,16.70
2023-05-20T18:43:49.760Z,19.30
2023-05-20T18:49:11.706Z,17.40
2023-05-20T18:54:33.859Z,17.50
2023-05-20T18:59:56.063Z,19.50
2023-05-20T19:05:19.946Z,22.00
2023-05-20T19:10:43.343Z,22.20
2023-05-20T19:16:05.702Z,19.40
2023-05-20T19:21:27.978Z,24.10
2023-05-20T19:26:51.424Z,24.90
2023-05-20T19:32:13.750Z,15.30
2023-05-20T19:37:36.047Z,16.70
2023-05-20T19:42:58.027Z,17.00
2023-05-20T19:48:22.212Z,17.60
2023-05-20T19:53:44.714Z,15.50
2023-05-20T19:59:06.500Z,13.80
2023-05-20T20:04:29.637Z,14.40
2023-05-20T20:09:55.331Z,13.10
2023-05-20T20:15:17.101Z,12.50
2023-05-20T20:20:42.669Z,13.80
2023-05-20T20:26:06.288Z,12.70
2023-05-20T20:31:28.857Z,12.60
2023-05-20T20:36:51.501Z,12.30
2023-05-20T20:42:23.817Z,13.30
2023-05-20T20:47:45.962Z,11.50
2023-05-20T20:53:07.503Z,12.00
2023-05-20T20:58:29.345Z,10.90
2023-05-20T21:03:54.579Z,11.50
2023-05-20T21:09:17.119Z,11.60
2023-05-20T21:14:38.978Z,11.30
2023-05-20T21:20:00.690Z,10.70
2023-05-20T21:25:22.406Z,10.50
2023-05-20T21:30:45.243Z,11.20
2023-05-20T21:36:09.007Z,10.80
2023-05-20T21:41:31.511Z,10.90
2023-05-20T21:46:53.655Z,11.90
2023-05-20T21:52:18.606Z,12.80
2023-05-20T21:57:40.429Z,11.70
2023-05-20T22:03:03.720Z,11.10
2023-05-20T22:08:35.499Z,11.40
2023-05-20T22:13:59.687Z,10.50
2023-05-20T22:19:23.987Z,11.50
2023-05-20T22:24:46.008Z,12.10
2023-05-20T22:30:12.301Z,9.50
2023-05-20T22:35:34.204Z,10.00
2023-05-20T22:41:06.000Z,10.60
2023-05-20T22:46:38.871Z,10.90
2023-05-20T22:52:03.039Z,10.90
2023-05-20T22:57:25.582Z,10.90
2023-05-20T23:02:50.161Z,11.00
2023-05-20T23:08:12.505Z,10.80
2023-05-20T23:13:35.843Z,10.40
2023-05-20T23:18:58.279Z,11.20
2023-05-20T23:24:20.212Z,11.10
2023-05-20T23:29:42.374Z,10.70
2023-05-20T23:35:05.055Z,10.50
2023-05-20T23:40:26.694Z,11.30
2023-05-20T23:45:48.569Z,11.60
2023-05-20T23:51:14.055Z,10.50
2023-05-20T23:56:36.922Z,9.50
